Time;durP1;ratioP1;P1;durP2;ratioP2;P2;SDS_P1;SDS_P2;PMS_P1;PMS_P2;Temp;Humidity;BMP_temperature;BMP_pressure;BME280_temperature;BME280_humidity;BME280_pressure;Samples;Min_cycle;Max_cycle;Signal;HPM_P1;HPM_P2
2021/06/23 00:00:40;;;;;;;7.88;2.33;;;;;13.60;101417.00;;;;5126608;27;20030;-75
2021/06/23 00:03:07;;;;;;;6.05;2.13;;;;;13.60;101422.00;;;;5127483;27;20030;-82
2021/06/23 00:05:34;;;;;;;8.45;2.70;;;;;13.60;101426.00;;;;5127057;27;20189;-84
2021/06/23 00:08:00;;;;;;;5.63;2.35;;;;;13.70;101434.00;;;;5126724;27;20027;-81
2021/06/23 00:10:27;;;;;;;6.50;1.80;;;;;13.70;101436.00;;;;5127382;27;20516;-79
2021/06/23 00:13:01;;;;;;;8.45;2.47;;;;;13.60;101427.00;;;;5127858;27;20027;-81
2021/06/23 00:15:28;;;;;;;6.32;2.30;;;;;13.60;101427.00;;;;5127130;27;20123;-82
2021/06/23 00:17:54;;;;;;;8.82;2.28;;;;;13.60;101429.00;;;;5110219;27;20451;-83
2021/06/23 00:20:22;;;;;;;3.00;2.22;;;;;13.60;101412.00;;;;5127995;27;20059;-84
2021/06/23 00:22:48;;;;;;;13.68;3.65;;;;;13.60;101419.00;;;;5127368;27;20034;-86
2021/06/23 00:25:15;;;;;;;5.68;2.40;;;;;13.60;101404.00;;;;5127367;27;20031;-81
2021/06/23 00:27:41;;;;;;;9.13;2.15;;;;;13.60;101416.00;;;;5127946;27;20083;-82
2021/06/23 00:30:08;;;;;;;7.28;2.30;;;;;13.60;101405.00;;;;5126696;27;20463;-81
2021/06/23 00:32:39;;;;;;;5.55;2.58;;;;;13.60;101419.00;;;;5108728;28;20759;-84
2021/06/23 00:35:06;;;;;;;14.77;8.00;;;;;13.60;101424.00;;;;5127451;28;20019;-85
2021/06/23 00:37:32;;;;;;;6.00;2.50;;;;;13.60;101407.00;;;;5127536;27;20023;-84
2021/06/23 00:39:59;;;;;;;5.70;2.30;;;;;13.60;101411.00;;;;5131217;27;20139;-78
2021/06/23 00:42:25;;;;;;;7.05;2.55;;;;;13.60;101422.00;;;;5132087;27;20020;-82
2021/06/23 00:44:52;;;;;;;7.55;2.70;;;;;13.60;101408.00;;;;5130737;27;20382;-80
2021/06/23 00:47:19;;;;;;;6.05;2.92;;;;;13.50;101434.00;;;;5131518;27;20106;-82
2021/06/23 00:49:46;;;;;;;4.57;2.30;;;;;13.60;101434.00;;;;5131584;27;20036;-81
2021/06/23 00:52:12;;;;;;;7.18;2.72;;;;;13.50;101410.00;;;;5131616;27;20050;-85
2021/06/23 00:54:48;;;;;;;4.25;2.42;;;;;13.50;101420.00;;;;5131513;27;20027;-81
2021/06/23 00:57:16;;;;;;;6.18;2.97;;;;;13.50;101419.00;;;;5131131;27;20051;-80
2021/06/23 00:59:44;;;;;;;7.85;2.67;;;;;13.50;101435.00;;;;5131320;27;20023;-76
2021/06/23 01:02:12;;;;;;;6.25;2.60;;;;;13.60;101435.00;;;;5128950;27;20383;-79
2021/06/23 01:04:40;;;;;;;6.65;3.28;;;;;13.50;101414.00;;;;5131303;27;20019;-86
2021/06/23 01:07:06;;;;;;;22.05;11.38;;;;;13.50;101418.00;;;;5131077;27;20764;-82
2021/06/23 01:09:33;;;;;;;9.18;4.35;;;;;13.50;101428.00;;;;5130140;27;20050;-85
2021/06/23 01:12:32;;;;;;;9.07;3.45;;;;;13.40;101416.00;;;;5130618;27;20106;-82
2021/06/23 01:14:59;;;;;;;13.95;4.47;;;;;13.40;101403.00;;;;5130912;27;20065;-83
2021/06/23 01:17:34;;;;;;;15.20;7.65;;;;;13.30;101437.00;;;;5130426;27;20425;-83
2021/06/23 01:20:07;;;;;;;22.38;10.50;;;;;13.30;101434.00;;;;5130184;27;20034;-81
2021/06/23 01:22:35;;;;;;;37.78;20.48;;;;;13.30;101446.00;;;;5131011;27;20075;-82
2021/06/23 01:25:01;;;;;;;12.95;4.20;;;;;13.30;101453.00;;;;5132220;27;20371;-84
2021/06/23 01:27:28;;;;;;;7.07;2.85;;;;;13.30;101445.00;;;;5130690;27;20402;-80
2021/06/23 01:29:54;;;;;;;25.08;12.63;;;;;13.30;101450.00;;;;5131569;27;20031;-81
2021/06/23 01:32:21;;;;;;;24.27;9.57;;;;;13.20;101444.00;;;;5130652;27;20035;-81
2021/06/23 01:34:48;;;;;;;18.90;8.73;;;;;13.20;101457.00;;;;5130195;27;20019;-82
2021/06/23 01:37:14;;;;;;;23.50;13.23;;;;;13.10;101418.00;;;;5130048;27;20433;-84
2021/06/23 01:39:41;;;;;;;21.55;11.80;;;;;13.00;101459.00;;;;5130632;27;20035;-81
2021/06/23 01:42:08;;;;;;;22.13;10.13;;;;;13.10;101455.00;;;;5130806;27;20031;-82
2021/06/23 01:44:35;;;;;;;13.82;6.07;;;;;13.10;101451.00;;;;5129982;27;20410;-84
2021/06/23 01:47:04;;;;;;;8.02;3.45;;;;;13.10;101446.00;;;;5130382;27;20031;-83
2021/06/23 01:49:31;;;;;;;16.35;6.03;;;;;13.20;101452.00;;;;5130838;27;20517;-83
2021/06/23 01:51:57;;;;;;;13.25;4.95;;;;;13.10;101460.00;;;;5130627;27;20031;-84
2021/06/23 01:54:24;;;;;;;9.38;4.45;;;;;12.90;101465.00;;;;5129598;27;20258;-84
2021/06/23 01:56:50;;;;;;;19.92;5.97;;;;;12.80;101451.00;;;;5129495;27;20043;-83
2021/06/23 01:59:17;;;;;;;13.68;5.18;;;;;12.80;101473.00;;;;5129546;27;20037;-84
2021/06/23 02:02:15;;;;;;;15.75;5.40;;;;;12.70;101438.00;;;;5128999;27;20031;-82
2021/06/23 02:05:09;;;;;;;11.80;3.65;;;;;12.60;101474.00;;;;5129666;27;20482;-83
2021/06/23 02:07:47;;;;;;;8.85;4.07;;;;;12.40;101467.00;;;;5129484;27;20439;-84
2021/06/23 02:10:38;;;;;;;14.68;4.03;;;;;12.40;101468.00;;;;5109963;27;20034;-83
2021/06/23 02:14:01;;;;;;;13.80;4.90;;;;;12.30;101454.00;;;;5129826;27;20027;-80
2021/06/23 02:16:27;;;;;;;8.23;3.60;;;;;12.20;101464.00;;;;5111107;27;20039;-85
2021/06/23 02:19:00;;;;;;;14.10;3.80;;;;;12.10;101441.00;;;;5129623;27;20090;-84
2021/06/23 02:21:28;;;;;;;12.95;2.97;;;;;12.00;101464.00;;;;5129928;27;20033;-85
2021/06/23 02:23:55;;;;;;;9.05;3.80;;;;;11.90;101460.00;;;;5129178;27;20061;-83
2021/06/23 02:26:21;;;;;;;7.35;3.13;;;;;11.80;101454.00;;;;5129492;27;20103;-84
2021/06/23 02:28:49;;;;;;;9.65;3.60;;;;;11.70;101456.00;;;;5128749;27;20802;-83
2021/06/23 02:31:16;;;;;;;13.85;3.42;;;;;11.70;101476.00;;;;5110951;27;20493;-82
2021/06/23 02:33:46;;;;;;;11.23;3.60;;;;;11.70;101458.00;;;;5128259;27;20789;-82
2021/06/23 02:36:13;;;;;;;7.93;3.15;;;;;11.60;101434.00;;;;5128782;27;20512;-81
2021/06/23 02:38:41;;;;;;;5.80;3.25;;;;;11.60;101460.00;;;;5128807;27;20516;-80
2021/06/23 02:41:07;;;;;;;6.00;3.17;;;;;11.50;101437.00;;;;5127946;27;20128;-83
2021/06/23 02:43:34;;;;;;;7.50;3.22;;;;;11.50;101469.00;;;;5128736;27;20118;-81
2021/06/23 02:46:01;;;;;;;6.22;3.20;;;;;11.40;101470.00;;;;5128045;27;20071;-84
2021/06/23 02:48:28;;;;;;;10.50;3.55;;;;;11.50;101456.00;;;;5127978;27;20118;-81
2021/06/23 02:51:07;;;;;;;3.78;2.90;;;;;11.40;101442.00;;;;5128743;27;20027;-82
2021/06/23 02:53:34;;;;;;;7.22;3.35;;;;;11.40;101452.00;;;;5127726;27;20516;-84
2021/06/23 02:56:01;;;;;;;6.70;3.10;;;;;11.40;101445.00;;;;5133611;27;20027;-80
2021/06/23 02:58:31;;;;;;;17.20;4.07;;;;;11.40;101450.00;;;;5140605;27;20161;-84
2021/06/23 03:00:59;;;;;;;6.03;3.83;;;;;11.30;101449.00;;;;5140036;27;20027;-81
2021/06/23 03:03:26;;;;;;;9.00;3.08;;;;;11.30;101430.00;;;;5129565;27;20027;-83
2021/06/23 03:05:52;;;;;;;10.90;3.47;;;;;11.20;101427.00;;;;5127106;27;20042;-81
2021/06/23 03:08:19;;;;;;;7.93;3.10;;;;;11.10;101429.00;;;;5126899;27;20019;-80
2021/06/23 03:10:45;;;;;;;8.60;3.28;;;;;11.00;101434.00;;;;5127439;27;20775;-84
2021/06/23 03:13:12;;;;;;;9.07;3.78;;;;;11.00;101450.00;;;;5128596;27;20019;-81
2021/06/23 03:15:38;;;;;;;8.70;3.90;;;;;11.00;101449.00;;;;5128870;27;20114;-81
2021/06/23 03:18:05;;;;;;;10.07;3.40;;;;;10.90;101448.00;;;;5127053;27;20091;-82
2021/06/23 03:20:32;;;;;;;7.75;3.83;;;;;10.90;101457.00;;;;5128664;27;20033;-81
2021/06/23 03:22:59;;;;;;;7.60;4.38;;;;;10.90;101455.00;;;;5109919;27;20489;-82
2021/06/23 03:25:26;;;;;;;14.55;4.53;;;;;10.90;101471.00;;;;5128577;27;20047;-80
2021/06/23 03:27:54;;;;;;;8.52;4.10;;;;;10.90;101452.00;;;;5129179;27;20034;-80
2021/06/23 03:30:23;;;;;;;7.82;4.57;;;;;10.90;101477.00;;;;5128703;27;20027;-81
2021/06/23 03:32:50;;;;;;;13.38;5.05;;;;;10.90;101479.00;;;;5128156;27;20042;-80
2021/06/23 03:35:22;;;;;;;8.15;4.55;;;;;10.80;101477.00;;;;5128347;27;20080;-82
2021/06/23 03:37:50;;;;;;;10.00;5.05;;;;;10.80;101484.00;;;;5128857;27;20027;-81
2021/06/23 03:40:18;;;;;;;15.82;5.95;;;;;10.70;101496.00;;;;5109825;27;20027;-81
2021/06/23 03:42:45;;;;;;;16.60;6.25;;;;;10.70;101486.00;;;;5128156;27;20031;-82
2021/06/23 03:45:13;;;;;;;15.02;7.43;;;;;10.60;101483.00;;;;5128789;27;20576;-80
2021/06/23 03:47:40;;;;;;;22.45;8.48;;;;;10.60;101466.00;;;;5128157;27;20732;-82
2021/06/23 03:50:09;;;;;;;16.90;7.55;;;;;10.70;101488.00;;;;5127691;27;20034;-82
2021/06/23 03:52:37;;;;;;;24.13;9.00;;;;;10.80;101479.00;;;;5128635;27;20027;-80
2021/06/23 03:55:06;;;;;;;29.52;11.02;;;;;10.80;101482.00;;;;5128371;27;20113;-81
2021/06/23 03:57:32;;;;;;;18.55;8.88;;;;;10.80;101493.00;;;;5127624;27;20050;-83
2021/06/23 03:59:59;;;;;;;13.95;7.15;;;;;10.90;101481.00;;;;5128233;27;20079;-80
2021/06/23 04:02:28;;;;;;;16.88;7.15;;;;;11.00;101482.00;;;;5107255;28;20058;-81
2021/06/23 04:04:55;;;;;;;27.17;7.55;;;;;11.00;101457.00;;;;5107495;28;20032;-82
2021/06/23 04:07:21;;;;;;;29.15;8.38;;;;;11.10;101464.00;;;;5107955;28;20027;-81
2021/06/23 04:09:48;;;;;;;200.85;11.68;;;;;11.20;101481.00;;;;5107173;28;20023;-80
2021/06/23 04:12:14;;;;;;;168.05;9.77;;;;;11.20;101465.00;;;;5107194;28;20070;-80
2021/06/23 04:14:41;;;;;;;234.98;12.80;;;;;11.20;101457.00;;;;5107037;28;20084;-81
2021/06/23 04:17:08;;;;;;;147.35;9.23;;;;;11.10;101447.00;;;;5106677;28;20019;-80
2021/06/23 04:19:34;;;;;;;159.48;9.55;;;;;11.10;101446.00;;;;5107529;28;20135;-82
2021/06/23 04:22:01;;;;;;;227.07;9.30;;;;;11.00;101440.00;;;;5088664;28;20032;-82
2021/06/23 04:24:27;;;;;;;231.30;10.13;;;;;11.00;101446.00;;;;5107764;28;20107;-80
2021/06/23 04:26:54;;;;;;;176.27;10.10;;;;;10.90;101448.00;;;;5107447;28;20024;-83
2021/06/23 04:29:21;;;;;;;102.22;8.82;;;;;10.90;101473.00;;;;5107182;28;20027;-82
2021/06/23 04:31:48;;;;;;;123.40;8.32;;;;;10.90;101457.00;;;;5107561;28;20508;-81
2021/06/23 04:34:14;;;;;;;27.02;6.43;;;;;10.80;101439.00;;;;5107063;28;20085;-80
2021/06/23 04:36:41;;;;;;;48.70;7.32;;;;;10.70;101443.00;;;;5107502;28;20031;-81
2021/06/23 04:39:07;;;;;;;56.40;6.72;;;;;10.70;101464.00;;;;5107107;28;20063;-81
2021/06/23 04:41:34;;;;;;;38.95;7.28;;;;;10.60;101436.00;;;;5107617;28;20032;-80
2021/06/23 04:44:01;;;;;;;23.63;7.30;;;;;10.60;101445.00;;;;5107687;28;20046;-81
2021/06/23 04:46:28;;;;;;;13.00;6.20;;;;;10.40;101439.00;;;;5106815;28;20027;-80
2021/06/23 04:48:54;;;;;;;27.67;6.90;;;;;10.50;101418.00;;;;5107322;28;20024;-79
2021/06/23 04:51:21;;;;;;;211.60;11.20;;;;;10.50;101433.00;;;;5107459;28;20400;-81
2021/06/23 04:53:48;;;;;;;103.22;9.57;;;;;10.40;101437.00;;;;5107662;28;20416;-80
2021/06/23 04:56:14;;;;;;;93.38;8.38;;;;;10.40;101451.00;;;;5106912;28;20097;-80
2021/06/23 04:58:41;;;;;;;38.55;7.55;;;;;10.40;101421.00;;;;5106754;28;20508;-80
2021/06/23 05:01:07;;;;;;;87.68;9.00;;;;;10.30;101405.00;;;;5107475;28;20023;-79
2021/06/23 05:03:34;;;;;;;39.88;8.23;;;;;10.30;101409.00;;;;5107704;28;20589;-79
2021/06/23 05:06:01;;;;;;;70.55;8.20;;;;;10.20;101433.00;;;;5107026;28;20458;-79
2021/06/23 05:08:29;;;;;;;77.53;7.43;;;;;10.10;101414.00;;;;5106479;28;20122;-80
2021/06/23 05:10:56;;;;;;;134.25;9.82;;;;;10.10;101440.00;;;;5106463;28;20023;-79
2021/06/23 05:13:24;;;;;;;98.90;9.50;;;;;10.10;101424.00;;;;5106434;28;20031;-79
2021/06/23 05:15:52;;;;;;;84.75;8.85;;;;;10.00;101411.00;;;;5106501;28;20065;-80
2021/06/23 05:18:18;;;;;;;96.80;9.48;;;;;10.00;101414.00;;;;5106918;28;20024;-80
2021/06/23 05:20:45;;;;;;;59.33;8.73;;;;;9.90;101429.00;;;;5106810;28;20026;-79
2021/06/23 05:23:12;;;;;;;52.95;7.65;;;;;9.90;101426.00;;;;5107025;28;20085;-81
2021/06/23 05:25:38;;;;;;;64.35;8.25;;;;;9.90;101417.00;;;;5109657;28;20076;-79
2021/06/23 05:28:05;;;;;;;134.57;10.35;;;;;9.90;101412.00;;;;5111057;28;20031;-79
2021/06/23 05:30:32;;;;;;;159.23;8.70;;;;;9.90;101395.00;;;;5110333;28;20038;-78
2021/06/23 05:32:58;;;;;;;100.53;7.93;;;;;10.00;101407.00;;;;5110211;28;20118;-79
2021/06/23 05:35:25;;;;;;;102.47;8.63;;;;;10.00;101413.00;;;;5111211;28;20027;-78
2021/06/23 05:37:52;;;;;;;83.00;7.80;;;;;10.00;101398.00;;;;5110511;28;20117;-80
2021/06/23 05:40:18;;;;;;;112.78;7.78;;;;;10.00;101418.00;;;;5091932;28;20130;-80
2021/06/23 05:42:45;;;;;;;106.70;7.55;;;;;10.00;101426.00;;;;5110373;28;20027;-79
2021/06/23 05:45:12;;;;;;;83.82;7.28;;;;;10.00;101418.00;;;;5110473;28;20054;-80
2021/06/23 05:47:38;;;;;;;104.85;7.15;;;;;10.00;101416.00;;;;5111684;28;20395;-79
2021/06/23 05:50:06;;;;;;;81.28;6.47;;;;;10.00;101415.00;;;;5110870;28;20023;-78
2021/06/23 05:52:33;;;;;;;113.47;18.75;;;;;9.90;101427.00;;;;5110314;28;20066;-78
2021/06/23 05:55:00;;;;;;;107.60;8.05;;;;;9.90;101407.00;;;;5110541;28;20020;-79
2021/06/23 05:57:26;;;;;;;81.25;5.78;;;;;9.90;101393.00;;;;5109864;28;20453;-78
2021/06/23 05:59:53;;;;;;;76.22;6.28;;;;;9.90;101383.00;;;;5110321;28;20036;-79
2021/06/23 06:02:19;;;;;;;83.78;5.75;;;;;9.90;101383.00;;;;5110071;28;20459;-79
2021/06/23 06:04:46;;;;;;;85.18;6.82;;;;;10.00;101398.00;;;;5110010;28;20019;-80
2021/06/23 06:07:12;;;;;;;15.45;6.30;;;;;10.00;101389.00;;;;5109735;28;20111;-79
2021/06/23 06:09:39;;;;;;;13.30;6.82;;;;;10.00;101398.00;;;;5110142;28;20093;-79
2021/06/23 06:12:07;;;;;;;17.67;6.07;;;;;10.00;101401.00;;;;5110620;28;20478;-79
2021/06/23 06:14:33;;;;;;;24.33;6.28;;;;;10.10;101382.00;;;;5110224;28;20031;-79
2021/06/23 06:17:00;;;;;;;47.35;6.90;;;;;10.10;101387.00;;;;5110045;28;20547;-79
2021/06/23 06:19:27;;;;;;;44.30;7.30;;;;;10.20;101395.00;;;;5110228;28;20024;-80
2021/06/23 06:21:54;;;;;;;74.47;6.95;;;;;10.20;101381.00;;;;5110017;28;20024;-79
2021/06/23 06:24:21;;;;;;;41.05;6.40;;;;;10.20;101390.00;;;;5110009;28;20027;-78
2021/06/23 06:26:48;;;;;;;92.22;6.22;;;;;10.20;101370.00;;;;5110453;28;20027;-78
2021/06/23 06:29:14;;;;;;;95.85;5.90;;;;;10.20;101369.00;;;;5110378;28;20027;-78
2021/06/23 06:31:41;;;;;;;37.15;4.70;;;;;10.10;101381.00;;;;5110188;28;20026;-78
2021/06/23 06:34:08;;;;;;;50.50;4.65;;;;;10.10;101365.00;;;;5110715;28;20478;-79
2021/06/23 06:36:34;;;;;;;53.17;5.32;;;;;10.00;101347.00;;;;5090096;28;20498;-78
2021/06/23 06:39:01;;;;;;;42.40;4.82;;;;;10.00;101357.00;;;;5109782;28;20506;-78
2021/06/23 06:41:27;;;;;;;25.67;4.35;;;;;9.80;101336.00;;;;5109896;28;20077;-79
2021/06/23 06:43:54;;;;;;;33.58;4.55;;;;;9.80;101326.00;;;;5109353;28;20049;-79
2021/06/23 06:46:21;;;;;;;23.48;5.05;;;;;9.80;101322.00;;;;5109765;28;20106;-78
2021/06/23 06:48:47;;;;;;;11.60;4.47;;;;;9.80;101313.00;;;;5109032;28;20023;-79
2021/06/23 06:51:14;;;;;;;63.72;5.60;;;;;9.90;101340.00;;;;5109149;28;20024;-80
2021/06/23 06:53:40;;;;;;;10.02;4.15;;;;;9.80;101321.00;;;;5109933;28;20036;-77
2021/06/23 06:56:07;;;;;;;5.70;4.30;;;;;9.80;101323.00;;;;5110522;28;20032;-78
2021/06/23 06:58:34;;;;;;;7.10;4.28;;;;;9.70;101333.00;;;;5109148;28;20032;-78
2021/06/23 07:01:00;;;;;;;19.77;5.00;;;;;9.60;101307.00;;;;5110311;28;20025;-79
2021/06/23 07:03:27;;;;;;;6.88;4.88;;;;;9.60;101340.00;;;;5109390;28;20127;-78
2021/06/23 07:05:54;;;;;;;6.63;4.80;;;;;9.50;101338.00;;;;5109303;28;20070;-77
2021/06/23 07:08:20;;;;;;;6.07;3.97;;;;;9.50;101330.00;;;;5110016;28;20053;-78
2021/06/23 07:10:47;;;;;;;5.80;4.15;;;;;9.30;101311.00;;;;5109842;28;20069;-77
2021/06/23 07:13:14;;;;;;;9.43;4.70;;;;;9.30;101312.00;;;;5109325;28;20057;-78
2021/06/23 07:15:40;;;;;;;14.00;8.00;;;;;9.30;101334.00;;;;5109308;28;20027;-79
2021/06/23 07:18:07;;;;;;;19.60;9.48;;;;;9.40;101322.00;;;;5109168;28;20529;-79
2021/06/23 07:20:33;;;;;;;12.07;7.57;;;;;9.50;101307.00;;;;5108251;28;20063;-79
2021/06/23 07:23:00;;;;;;;12.57;5.47;;;;;9.50;101321.00;;;;5108749;28;20024;-79
2021/06/23 07:25:28;;;;;;;14.88;6.07;;;;;9.50;101307.00;;;;5109010;28;20039;-79
2021/06/23 07:27:54;;;;;;;12.52;4.70;;;;;9.40;101308.00;;;;5108169;28;20490;-79
2021/06/23 07:30:22;;;;;;;7.13;4.15;;;;;9.50;101292.00;;;;5108516;28;20024;-80
2021/06/23 07:32:58;;;;;;;7.72;5.32;;;;;9.40;101303.00;;;;5089642;28;20399;-79
2021/06/23 07:38:14;;;;;;;7.35;5.15;;;;;9.40;101265.00;;;;5108234;28;20043;-79
2021/06/23 07:43:12;;;;;;;9.35;4.95;;;;;9.50;101262.00;;;;5108256;28;20261;-78
2021/06/23 07:45:43;;;;;;;5.45;3.95;;;;;9.50;101280.00;;;;5107577;28;20020;-78
2021/06/23 07:48:10;;;;;;;;;;;;;9.50;101285.00;;;;5108289;28;20070;-78
2021/06/23 07:50:46;;;;;;;7.85;3.97;;;;;9.50;101268.00;;;;5108133;28;20387;-79
2021/06/23 07:53:22;;;;;;;8.10;3.65;;;;;9.50;101258.00;;;;5108590;28;20383;-77
2021/06/23 07:56:02;;;;;;;5.75;3.13;;;;;9.50;101259.00;;;;5108125;28;20433;-78
2021/06/23 08:01:42;;;;;;;4.43;3.20;;;;;9.40;101260.00;;;;5108378;28;20110;-78
2021/06/23 08:14:41;;;;;;;6.05;4.03;;;;;9.20;101279.00;;;;5108111;28;20080;-78
2021/06/23 08:17:07;;;;;;;7.10;4.15;;;;;9.10;101275.00;;;;5108604;28;20027;-79
2021/06/23 08:19:34;;;;;;;8.20;4.13;;;;;9.10;101286.00;;;;5108541;28;20032;-78
2021/06/23 08:22:00;;;;;;;6.57;3.80;;;;;9.10;101276.00;;;;5108673;28;20035;-78
2021/06/23 08:24:27;;;;;;;5.65;3.60;;;;;9.10;101274.00;;;;5107582;28;20034;-78
2021/06/23 08:26:53;;;;;;;11.43;3.95;;;;;9.10;101259.00;;;;5107841;28;20115;-78
2021/06/23 08:29:20;;;;;;;4.78;3.30;;;;;9.10;101265.00;;;;5107363;28;20024;-79
2021/06/23 08:31:47;;;;;;;7.65;3.58;;;;;9.20;101259.00;;;;5107767;28;20499;-77
2021/06/23 08:34:13;;;;;;;5.78;3.30;;;;;9.10;101268.00;;;;5107035;28;20421;-79
2021/06/23 08:36:40;;;;;;;7.68;3.20;;;;;9.00;101260.00;;;;5107735;28;20077;-78
2021/06/23 08:39:06;;;;;;;4.75;3.28;;;;;9.00;101270.00;;;;5107489;28;20027;-78
2021/06/23 08:41:35;;;;;;;12.30;6.38;;;;;9.00;101259.00;;;;5107929;28;20110;-77
2021/06/23 08:44:02;;;;;;;11.40;3.97;;;;;9.00;101281.00;;;;5107223;28;20027;-78
2021/06/23 08:46:30;;;;;;;77.38;4.68;;;;;8.90;101270.00;;;;5108031;28;20053;-77
2021/06/23 08:48:59;;;;;;;256.30;8.52;;;;;8.90;101272.00;;;;5108064;28;20066;-79
2021/06/23 08:51:26;;;;;;;627.60;15.90;;;;;8.90;101278.00;;;;5108347;28;20024;-79
2021/06/23 08:53:52;;;;;;;745.05;18.42;;;;;8.90;101273.00;;;;5107685;28;20024;-79
2021/06/23 08:56:19;;;;;;;389.50;9.70;;;;;8.90;101290.00;;;;5107492;28;20086;-77
2021/06/23 08:58:46;;;;;;;437.52;10.68;;;;;8.90;101271.00;;;;5107097;28;20071;-78
2021/06/23 09:01:13;;;;;;;389.42;8.50;;;;;8.90;101265.00;;;;5110823;28;20051;-78
2021/06/23 09:04:04;;;;;;;365.85;9.13;;;;;8.80;101313.00;;;;5111157;28;20493;-78
2021/06/23 09:06:58;;;;;;;214.02;6.88;;;;;8.70;101288.00;;;;5111059;28;20042;-77
2021/06/23 09:09:26;;;;;;;100.50;3.35;;;;;8.60;101300.00;;;;5111364;28;20034;-78
2021/06/23 09:11:55;;;;;;;121.95;4.05;;;;;8.60;101317.00;;;;5111611;28;20107;-78
2021/06/23 09:14:23;;;;;;;8.10;1.85;;;;;8.50;101303.00;;;;5111098;28;20387;-79
2021/06/23 09:17:16;;;;;;;43.15;3.05;;;;;8.40;101306.00;;;;5111396;28;20016;-78
2021/06/23 09:19:44;;;;;;;14.65;1.75;;;;;8.40;101326.00;;;;5111072;28;20834;-78
2021/06/23 09:22:29;;;;;;;13.93;1.60;;;;;8.40;101357.00;;;;5111223;28;20024;-78
2021/06/23 09:24:56;;;;;;;2.90;1.73;;;;;8.40;101328.00;;;;5110731;28;20035;-79
2021/06/23 09:27:25;;;;;;;1.98;1.77;;;;;8.40;101333.00;;;;5110590;28;20039;-78
2021/06/23 09:29:52;;;;;;;2.25;1.75;;;;;8.40;101350.00;;;;5110466;28;20027;-79
2021/06/23 09:32:22;;;;;;;7.65;2.63;;;;;8.50;101331.00;;;;5110602;28;20038;-79
2021/06/23 09:34:53;;;;;;;4.70;2.50;;;;;8.50;101352.00;;;;5111250;28;20027;-78
2021/06/23 09:37:33;;;;;;;3.45;2.75;;;;;8.60;101345.00;;;;5110583;28;20034;-79
2021/06/23 09:40:19;;;;;;;3.80;2.70;;;;;8.70;101349.00;;;;5110430;28;20024;-79
2021/06/23 09:43:00;;;;;;;7.10;2.92;;;;;8.80;101328.00;;;;5110612;28;20023;-78
2021/06/23 09:45:29;;;;;;;6.70;3.13;;;;;8.70;101364.00;;;;5091999;28;21218;-78
2021/06/23 09:48:07;;;;;;;4.97;2.90;;;;;8.80;101345.00;;;;5109317;28;20039;-79
2021/06/23 09:50:36;;;;;;;4.32;2.88;;;;;8.80;101337.00;;;;5108124;28;20030;-79
2021/06/23 09:53:14;;;;;;;6.18;3.38;;;;;8.80;101367.00;;;;5110426;28;20486;-78
2021/06/23 09:55:46;;;;;;;6.28;3.13;;;;;8.90;101343.00;;;;5110015;28;20024;-79
2021/06/23 09:58:20;;;;;;;5.38;3.25;;;;;8.90;101342.00;;;;5110319;28;20051;-79
2021/06/23 10:01:02;;;;;;;7.00;2.97;;;;;8.90;101371.00;;;;5110115;28;20055;-78
2021/06/23 10:03:29;;;;;;;;;;;;;8.90;101379.00;;;;5110410;28;20023;-77
2021/06/23 10:05:57;;;;;;;7.22;3.08;;;;;9.00;101352.00;;;;5110073;28;20399;-77
2021/06/23 10:08:30;;;;;;;8.50;2.92;;;;;9.10;101390.00;;;;5110159;28;20394;-77
2021/06/23 10:10:57;;;;;;;6.93;2.58;;;;;9.10;101374.00;;;;5109598;28;20077;-80
2021/06/23 10:13:23;;;;;;;9.35;2.67;;;;;9.00;101377.00;;;;5110230;28;20546;-78
2021/06/23 10:15:50;;;;;;;3.10;2.40;;;;;9.00;101360.00;;;;5109730;28;20466;-79
2021/06/23 10:18:20;;;;;;;9.48;2.70;;;;;9.00;101362.00;;;;5110013;28;20390;-79
2021/06/23 10:20:48;;;;;;;12.05;2.50;;;;;9.00;101350.00;;;;5110326;28;20106;-78
2021/06/23 10:23:16;;;;;;;6.18;2.58;;;;;9.10;101365.00;;;;5109913;28;20019;-76
2021/06/23 10:25:43;;;;;;;11.60;3.15;;;;;9.10;101369.00;;;;5109670;28;20028;-79
2021/06/23 10:28:11;;;;;;;8.18;2.13;;;;;9.10;101343.00;;;;5109287;28;20035;-79
2021/06/23 10:30:38;;;;;;;5.57;2.63;;;;;9.10;101365.00;;;;5109445;28;20035;-79
2021/06/23 10:33:05;;;;;;;8.15;3.20;;;;;9.10;101371.00;;;;5109065;28;20076;-79
2021/06/23 10:35:32;;;;;;;5.80;2.92;;;;;9.10;101368.00;;;;5107940;28;20032;-79
2021/06/23 10:37:59;;;;;;;6.55;2.67;;;;;9.10;101374.00;;;;5107896;28;21110;-78
2021/06/23 10:40:27;;;;;;;6.88;2.88;;;;;9.20;101369.00;;;;5109336;28;20026;-80
2021/06/23 10:43:09;;;;;;;6.82;3.60;;;;;9.20;101366.00;;;;5109531;28;20110;-80
2021/06/23 10:45:44;;;;;;;8.20;3.22;;;;;9.30;101375.00;;;;5109493;28;20031;-80
2021/06/23 10:48:11;;;;;;;12.32;3.72;;;;;9.30;101366.00;;;;5109241;28;20038;-79
2021/06/23 10:50:38;;;;;;;6.15;3.38;;;;;9.40;101378.00;;;;5109314;28;20460;-79
2021/06/23 10:53:29;;;;;;;23.08;6.65;;;;;9.70;101374.00;;;;5108650;28;20115;-78
2021/06/23 10:55:57;;;;;;;24.65;7.20;;;;;9.80;101348.00;;;;5109309;28;20038;-79
2021/06/23 10:58:35;;;;;;;18.65;5.90;;;;;9.80;101356.00;;;;5108848;28;20039;-80
2021/06/23 11:01:11;;;;;;;35.72;9.88;;;;;9.80;101374.00;;;;5108969;28;20129;-79
2021/06/23 11:04:06;;;;;;;9.65;5.47;;;;;9.90;101368.00;;;;5109221;28;20027;-79
2021/06/23 11:06:46;;;;;;;8.65;4.35;;;;;9.90;101366.00;;;;5091442;28;20479;-81
2021/06/23 11:09:29;;;;;;;7.10;3.60;;;;;9.90;101383.00;;;;5108031;28;20035;-80
2021/06/23 11:11:56;;;;;;;17.83;4.25;;;;;10.00;101371.00;;;;5109162;28;20016;-79
2021/06/23 11:14:26;;;;;;;8.80;4.47;;;;;10.10;101356.00;;;;5110122;28;20027;-79
2021/06/23 11:16:52;;;;;;;14.15;3.97;;;;;10.20;101382.00;;;;5110508;28;20673;-78
2021/06/23 11:19:19;;;;;;;15.18;4.72;;;;;10.20;101390.00;;;;5112959;28;20055;-78
2021/06/23 11:21:47;;;;;;;6.32;3.50;;;;;10.30;101373.00;;;;5109142;28;20051;-78
2021/06/23 11:24:16;;;;;;;14.85;4.45;;;;;10.40;101359.00;;;;5110214;28;20688;-78
2021/06/23 11:26:49;;;;;;;17.77;3.63;;;;;10.50;101379.00;;;;5110936;28;20020;-79
2021/06/23 11:29:15;;;;;;;7.65;2.95;;;;;10.60;101376.00;;;;5109721;28;20023;-79
2021/06/23 11:31:43;;;;;;;3.00;2.70;;;;;10.80;101367.00;;;;5109609;28;20038;-79
2021/06/23 11:34:10;;;;;;;9.25;2.22;;;;;10.70;101387.00;;;;5110501;28;20455;-79
2021/06/23 11:36:37;;;;;;;5.75;2.50;;;;;10.70;101386.00;;;;5109846;28;20027;-79
2021/06/23 11:39:06;;;;;;;6.60;2.35;;;;;10.80;101388.00;;;;5109485;28;20035;-79
2021/06/23 11:41:33;;;;;;;11.57;2.47;;;;;11.00;101399.00;;;;5109373;28;20030;-79
2021/06/23 11:44:00;;;;;;;9.75;2.85;;;;;11.20;101397.00;;;;5109338;28;20368;-78
2021/06/23 11:46:26;;;;;;;14.90;2.83;;;;;11.50;101416.00;;;;5108947;28;20032;-78
2021/06/23 11:48:53;;;;;;;12.98;2.72;;;;;11.70;101396.00;;;;5109517;28;20038;-79
2021/06/23 11:51:23;;;;;;;8.18;3.75;;;;;11.80;101390.00;;;;5109751;28;20372;-78
2021/06/23 11:53:52;;;;;;;3.22;2.70;;;;;12.00;101385.00;;;;5110031;28;20028;-77
2021/06/23 11:56:19;;;;;;;7.40;3.65;;;;;12.20;101408.00;;;;5109565;28;20068;-79
2021/06/23 11:58:45;;;;;;;17.55;6.30;;;;;12.40;101359.00;;;;5109780;28;20035;-79
2021/06/23 12:01:12;;;;;;;10.75;2.95;;;;;12.70;101399.00;;;;5091900;28;20126;-79
2021/06/23 12:03:38;;;;;;;3.22;2.42;;;;;13.00;101400.00;;;;5110894;28;20411;-79
2021/06/23 12:06:05;;;;;;;6.18;2.55;;;;;13.10;101390.00;;;;5110975;28;20388;-80
2021/06/23 12:08:32;;;;;;;3.97;1.95;;;;;13.00;101413.00;;;;5112228;28;20027;-80
2021/06/23 12:10:58;;;;;;;6.75;2.30;;;;;13.10;101404.00;;;;5109909;28;20032;-79
2021/06/23 12:13:25;;;;;;;5.47;2.38;;;;;13.10;101405.00;;;;5112333;28;20023;-79
2021/06/23 12:15:52;;;;;;;3.30;2.05;;;;;13.00;101417.00;;;;5110093;28;20469;-79
2021/06/23 12:18:18;;;;;;;7.95;2.25;;;;;13.00;101428.00;;;;5109413;28;20032;-77
2021/06/23 12:20:45;;;;;;;4.57;2.40;;;;;13.00;101403.00;;;;5109160;28;20401;-78
2021/06/23 12:23:12;;;;;;;9.38;2.80;;;;;13.10;101418.00;;;;5110684;28;20449;-81
2021/06/23 12:25:52;;;;;;;3.47;2.60;;;;;13.10;101419.00;;;;5094021;28;20028;-82
2021/06/23 12:28:19;;;;;;;7.53;4.07;;;;;13.20;101417.00;;;;5114087;28;20088;-81
2021/06/23 12:30:47;;;;;;;8.55;3.33;;;;;13.30;101420.00;;;;5112050;28;20470;-80
2021/06/23 12:33:15;;;;;;;10.27;4.05;;;;;13.40;101394.00;;;;5114385;28;20024;-78